Time;durP1;ratioP1;P1;durP2;ratioP2;P2;SDS_P1;SDS_P2;PMS_P1;PMS_P2;Temp;Humidity;BMP_temperature;BMP_pressure;BME280_temperature;BME280_humidity;BME280_pressure;Samples;Min_cycle;Max_cycle;Signal;HPM_P1;HPM_P2
2022/06/21 00:00:19;;;;;;;;;17.40;17.40;;;;;27.66;41.41;98730.13;5053023;28;8846;-77
2022/06/21 00:03:05;;;;;;;;;14.80;14.80;;;;;27.67;41.14;98736.34;5069470;28;9680;-76
2022/06/21 00:05:37;;;;;;;;;19.40;18.40;;;;;27.63;41.42;98726.84;5086068;28;8882;-77
2022/06/21 00:08:07;;;;;;;;;17.20;14.60;;;;;27.63;41.31;98730.38;5070358;28;9005;-77
2022/06/21 00:10:36;;;;;;;;;17.50;17.50;;;;;27.64;41.34;98733.91;5068954;28;8861;-76
2022/06/21 00:13:09;;;;;;;;;19.00;18.25;;;;;27.61;41.71;98732.34;5080901;28;8852;-77
2022/06/21 00:15:40;;;;;;;;;21.00;20.50;;;;;27.57;41.90;98738.94;5106261;28;8860;-77
2022/06/21 00:18:12;;;;;;;;;23.00;22.00;;;;;27.51;42.33;98737.63;5090473;28;8908;-75
2022/06/21 00:20:41;;;;;;;;;22.00;22.00;;;;;27.49;42.83;98738.75;5072259;27;8847;-77
2022/06/21 00:23:13;;;;;;;;;24.75;24.50;;;;;27.46;42.94;98741.66;5075984;28;8874;-77
2022/06/21 00:25:45;;;;;;;;;28.00;27.50;;;;;27.41;43.67;98739.34;5069118;28;8846;-78
2022/06/21 00:28:13;;;;;;;;;27.00;26.00;;;;;27.40;43.74;98741.19;5069341;28;8866;-75
2022/06/21 00:30:46;;;;;;;;;33.50;30.50;;;;;27.30;44.44;98740.25;5083257;28;8906;-76
2022/06/21 00:33:16;;;;;;;;;26.50;26.50;;;;;27.18;44.82;98739.44;5093376;28;8835;-75
2022/06/21 00:35:47;;;;;;;;;30.50;30.25;;;;;27.22;44.97;98734.63;5094030;28;8994;-76
2022/06/21 00:38:32;;;;;;;;;32.00;30.75;;;;;27.23;45.41;98731.84;5106512;28;8879;-77
2022/06/21 00:41:03;;;;;;;;;35.50;32.00;;;;;27.22;45.35;98746.22;5076544;28;8865;-76
2022/06/21 00:43:40;;;;;;;;;33.50;31.75;;;;;27.18;45.85;98735.88;5069916;28;8846;-76
2022/06/21 00:46:26;;;;;;;;;34.25;31.00;;;;;27.09;46.35;98736.63;5068554;28;8905;-75
2022/06/21 00:48:56;;;;;;;;;33.75;31.50;;;;;27.11;46.07;98727.53;5068684;28;8850;-77
2022/06/21 00:51:31;;;;;;;;;34.75;32.25;;;;;27.06;46.22;98732.38;5069712;28;8878;-77
2022/06/21 00:54:07;;;;;;;;;36.25;32.00;;;;;26.94;46.85;98728.06;5085237;28;8846;-76
2022/06/21 00:56:40;;;;;;;;;35.50;32.25;;;;;27.00;46.34;98725.72;5069325;28;8890;-77
2022/06/21 00:59:20;;;;;;;;;35.75;32.75;;;;;26.66;47.31;98730.28;5068387;28;9584;-76
2022/06/21 01:01:53;;;;;;;;;32.50;31.00;;;;;26.81;47.41;98718.34;5060996;28;8863;-76
2022/06/21 01:04:28;;;;;;;;;34.00;32.25;;;;;26.59;47.66;98729.03;5067612;28;8908;-75
2022/06/21 01:07:01;;;;;;;;;34.00;32.25;;;;;26.61;47.92;98722.59;5069201;28;8853;-76
2022/06/21 01:09:34;;;;;;;;;30.75;30.25;;;;;26.57;47.82;98730.97;5069312;28;8854;-76
2022/06/21 01:12:08;;;;;;;;;30.75;29.25;;;;;26.43;48.42;98727.59;5068915;28;8842;-75
2022/06/21 01:14:41;;;;;;;;;34.50;32.00;;;;;26.38;48.33;98727.09;5068938;28;8851;-76
2022/06/21 01:17:13;;;;;;;;;36.25;33.00;;;;;26.40;48.79;98716.28;5084320;28;8850;-75
2022/06/21 01:19:45;;;;;;;;;32.75;30.25;;;;;26.51;47.92;98710.94;5055653;28;8835;-75
2022/06/21 01:22:25;;;;;;;;;33.00;31.00;;;;;26.26;49.24;98715.53;5104127;28;8851;-76
2022/06/21 01:25:10;;;;;;;;;33.00;32.00;;;;;26.27;49.03;98705.69;5076650;28;9612;-77
2022/06/21 01:27:41;;;;;;;;;27.75;27.75;;;;;26.22;49.68;98707.91;5101462;28;8961;-77
2022/06/21 01:30:11;;;;;;;;;37.25;33.25;;;;;25.99;50.48;98704.34;5084586;28;9608;-77
2022/06/21 01:32:40;;;;;;;;;36.00;33.00;;;;;26.16;49.90;98698.53;5067449;28;8861;-76
2022/06/21 01:35:12;;;;;;;;;36.25;33.00;;;;;25.97;50.84;98708.94;5069101;28;8834;-77
2022/06/21 01:37:42;;;;;;;;;36.75;33.25;;;;;26.09;50.39;98691.09;5073495;28;8869;-78
2022/06/21 01:40:13;;;;;;;;;39.75;35.50;;;;;26.02;50.65;98696.94;5087969;28;9014;-75
2022/06/21 01:42:48;;;;;;;;;39.50;34.75;;;;;25.95;50.71;98700.19;5088935;28;8859;-75
2022/06/21 01:45:22;;;;;;;;;38.50;34.00;;;;;25.84;51.02;98696.53;5088201;28;8851;-78
2022/06/21 01:47:54;;;;;;;;;35.75;33.00;;;;;25.66;51.68;98696.09;5078593;28;8869;-76
2022/06/21 01:50:24;;;;;;;;;34.00;32.25;;;;;25.71;51.51;98692.22;5071350;28;9644;-75
2022/06/21 01:52:56;;;;;;;;;34.25;32.50;;;;;25.81;51.26;98687.91;5067578;28;8846;-79
2022/06/21 01:55:31;;;;;;;;;29.25;28.50;;;;;25.89;50.94;98690.81;5071280;28;8863;-80
2022/06/21 01:58:06;;;;;;;;;37.00;33.75;;;;;25.86;51.07;98705.28;5072143;28;8848;-76
2022/06/21 02:00:39;;;;;;;;;35.75;33.25;;;;;25.71;51.63;98705.56;5087674;28;8822;-78
2022/06/21 02:03:15;;;;;;;;;30.75;30.00;;;;;25.84;51.19;98699.19;5046477;28;8854;-78
2022/06/21 02:05:50;;;;;;;;;34.00;32.25;;;;;25.73;51.68;98703.63;5086592;28;8970;-78
2022/06/21 02:08:25;;;;;;;;;35.50;32.25;;;;;25.83;51.13;98700.16;5070458;28;8846;-79
2022/06/21 02:10:57;;;;;;;;;33.75;31.00;;;;;25.43;52.93;98713.03;5086286;28;9595;-81
2022/06/21 02:13:33;;;;;;;;;31.25;29.25;;;;;25.66;52.01;98705.94;5060421;28;8870;-75
2022/06/21 02:16:08;;;;;;;;;33.75;31.50;;;;;25.80;51.58;98711.09;5064836;28;8931;-76
2022/06/21 02:18:42;;;;;;;;;37.00;32.00;;;;;25.71;51.81;98711.78;5036380;28;8875;-77
2022/06/21 02:21:17;;;;;;;;;30.25;30.00;;;;;25.79;51.68;98706.72;5075286;28;8965;-76
2022/06/21 02:23:55;;;;;;;;;33.00;32.00;;;;;25.84;51.69;98709.88;5069143;28;8872;-74
2022/06/21 02:26:25;;;;;;;;;37.25;32.50;;;;;25.61;52.32;98711.63;5071750;28;8998;-74
2022/06/21 02:28:55;;;;;;;;;31.00;30.50;;;;;25.75;51.91;98712.41;5082132;28;9008;-83
2022/06/21 02:31:26;;;;;;;;;34.50;32.25;;;;;25.84;51.42;98712.56;5061269;28;8855;-79
2022/06/21 02:33:59;;;;;;;;;31.00;29.75;;;;;25.61;52.13;98706.28;5070251;28;8854;-77
2022/06/21 02:36:31;;;;;;;;;33.50;32.00;;;;;25.83;51.36;98708.16;5068450;28;8957;-78
2022/06/21 02:39:04;;;;;;;;;33.00;31.75;;;;;25.88;51.31;98714.00;5066936;28;8931;-77
2022/06/21 02:41:37;;;;;;;;;35.00;32.75;;;;;25.60;52.38;98709.09;5067871;28;8858;-76
2022/06/21 02:44:15;;;;;;;;;29.50;29.25;;;;;25.75;51.51;98699.91;5068522;28;8866;-77
2022/06/21 02:46:48;;;;;;;;;28.50;28.50;;;;;25.42;51.90;98697.97;5063809;28;8875;-76
2022/06/21 02:49:22;;;;;;;;;26.75;26.25;;;;;25.66;51.41;98705.94;5069115;28;8909;-75
2022/06/21 02:51:56;;;;;;;;;24.75;24.75;;;;;25.68;51.15;98702.19;5086260;28;8874;-75
2022/06/21 02:54:27;;;;;;;;;27.00;26.00;;;;;25.67;51.38;98707.63;5086885;28;8863;-74
2022/06/21 02:57:03;;;;;;;;;30.25;29.75;;;;;25.70;51.39;98704.75;5073114;28;8847;-75
2022/06/21 02:59:37;;;;;;;;;27.25;27.00;;;;;25.37;52.82;98713.47;5068809;28;8830;-78
2022/06/21 03:02:10;;;;;;;;;33.75;30.00;;;;;25.39;52.63;98724.91;5070888;28;8846;-76
2022/06/21 03:04:44;;;;;;;;;29.75;28.75;;;;;25.45;52.75;98719.94;5069372;28;9085;-76
2022/06/21 03:07:19;;;;;;;;;33.75;30.75;;;;;25.29;53.43;98720.25;5058376;28;8858;-77
2022/06/21 03:09:48;;;;;;;;;31.00;30.25;;;;;25.43;53.05;98719.22;5070285;28;8838;-74
2022/06/21 03:12:19;;;;;;;;;32.00;30.25;;;;;25.41;53.26;98729.16;5070356;28;8981;-76
2022/06/21 03:14:53;;;;;;;;;24.75;24.75;;;;;25.37;53.36;98730.38;5068530;28;8873;-75
2022/06/21 03:17:34;;;;;;;;;28.50;28.50;;;;;25.54;52.85;98731.75;5072837;28;8866;-75
2022/06/21 03:20:03;;;;;;;;;34.75;32.75;;;;;25.39;53.46;98722.25;5071061;28;8889;-74
2022/06/21 03:22:35;;;;;;;;;30.50;29.00;;;;;25.44;53.13;98730.75;5068903;28;8858;-75
2022/06/21 03:25:06;;;;;;;;;29.75;29.00;;;;;25.62;52.58;98736.53;5072377;28;8848;-76
2022/06/21 03:27:38;;;;;;;;;26.25;26.25;;;;;25.55;52.83;98741.47;5069667;28;8843;-76
2022/06/21 03:30:10;;;;;;;;;31.50;30.25;;;;;25.28;53.77;98747.91;5070307;28;8896;-76
2022/06/21 03:32:39;;;;;;;;;32.25;30.00;;;;;25.44;53.19;98760.97;5072215;28;8835;-78
2022/06/21 03:35:08;;;;;;;;;33.00;30.67;;;;;25.21;53.98;98761.78;5070216;28;8851;-76
2022/06/21 03:37:39;;;;;;;;;34.00;28.75;;;;;25.00;54.63;98764.22;5084904;28;8847;-76
2022/06/21 03:43:06;;;;;;;;;31.75;31.00;;;;;24.88;54.76;98766.81;5068171;28;8901;-77
2022/06/21 03:45:41;;;;;;;;;30.50;30.00;;;;;24.75;55.48;98773.97;5068194;28;8858;-75
2022/06/21 03:48:20;;;;;;;;;32.25;30.25;;;;;24.66;55.94;98767.47;5073395;28;8844;-76
2022/06/21 03:50:53;;;;;;;;;29.25;29.25;;;;;24.77;55.49;98765.88;5079694;28;9596;-75
2022/06/21 03:53:27;;;;;;;;;35.50;31.00;;;;;24.69;55.84;98774.44;5074853;28;8879;-74
2022/06/21 03:56:03;;;;;;;;;29.00;27.25;;;;;24.71;55.88;98772.50;5080864;28;8858;-74
2022/06/21 03:58:45;;;;;;;;;34.00;31.50;;;;;24.60;56.32;98788.41;5071445;28;8871;-79
2022/06/21 04:01:20;;;;;;;;;31.50;30.50;;;;;24.28;57.58;98789.66;5070387;28;8931;-78
2022/06/21 04:03:54;;;;;;;;;34.50;32.00;;;;;24.07;58.61;98799.13;5071129;28;8943;-77
2022/06/21 04:06:29;;;;;;;;;33.50;31.50;;;;;23.88;59.28;98796.88;5069976;28;9056;-75
2022/06/21 04:09:04;;;;;;;;;30.75;29.00;;;;;23.65;60.39;98793.91;5069618;28;8884;-76
2022/06/21 04:11:41;;;;;;;;;35.25;33.50;;;;;23.78;59.80;98804.59;5066754;28;8838;-75
2022/06/21 04:14:19;;;;;;;;;37.25;33.75;;;;;23.87;60.08;98813.78;5069482;28;8866;-77
2022/06/21 04:17:00;;;;;;;;;34.75;33.00;;;;;23.88;59.92;98810.19;5084213;28;8931;-76
2022/06/21 04:19:36;;;;;;;;;34.50;32.00;;;;;23.80;60.32;98820.47;5084328;28;8998;-76
2022/06/21 04:22:14;;;;;;;;;36.25;33.00;;;;;23.93;59.91;98810.69;5069404;28;8925;-76
2022/06/21 04:24:48;;;;;;;;;34.00;32.50;;;;;24.04;59.55;98817.97;5102867;28;8881;-75
2022/06/21 04:27:23;;;;;;;;;38.50;35.00;;;;;24.09;59.65;98814.03;5083450;28;8838;-80
2022/06/21 04:29:56;;;;;;;;;52.00;44.75;;;;;24.08;59.45;98820.34;5071206;28;9628;-78
2022/06/21 04:32:31;;;;;;;;;34.75;31.75;;;;;24.02;59.88;98823.41;5070588;28;8822;-75
2022/06/21 04:35:06;;;;;;;;;35.00;31.50;;;;;24.25;59.20;98826.31;5087412;28;8869;-76
2022/06/21 04:37:44;;;;;;;;;34.25;30.25;;;;;24.51;58.35;98825.38;5104600;28;8818;-81
2022/06/21 04:40:20;;;;;;;;;37.50;33.50;;;;;24.77;57.61;98832.53;5070379;28;8849;-75
2022/06/21 04:42:57;;;;;;;;;36.50;33.75;;;;;24.38;59.14;98829.84;5086724;27;8838;-75
2022/06/21 04:45:33;;;;;;;;;35.00;33.00;;;;;24.68;58.06;98834.88;5086960;28;8885;-79
2022/06/21 04:48:29;;;;;;;;;37.50;34.25;;;;;24.76;57.77;98837.00;5087486;28;8865;-76
2022/06/21 04:51:05;;;;;;;;;37.50;32.75;;;;;25.19;56.38;98836.59;5087151;28;8853;-77
2022/06/21 04:53:43;;;;;;;;;36.50;34.25;;;;;25.27;56.20;98844.97;5103336;28;8844;-75
2022/06/21 04:56:24;;;;;;;;;31.00;30.50;;;;;24.82;57.39;98852.59;5090051;28;8852;-78
2022/06/21 04:58:53;;;;;;;;;37.00;32.00;;;;;24.83;58.06;98862.28;5088690;28;8840;-76
2022/06/21 05:01:33;;;;;;;;;31.50;30.25;;;;;24.58;58.39;98875.63;5101397;28;8990;-76
2022/06/21 05:04:09;;;;;;;;;29.75;27.50;;;;;24.35;59.17;98871.81;5103941;28;8847;-79
2022/06/21 05:06:39;;;;;;;;;31.25;29.25;;;;;24.40;59.14;98875.03;5075704;28;8963;-76
2022/06/21 05:09:13;;;;;;;;;26.50;25.75;;;;;24.54;59.01;98875.00;5067618;28;8868;-80
2022/06/21 05:11:42;;;;;;;;;30.25;29.25;;;;;24.71;58.51;98877.34;5049575;28;8871;-77
2022/06/21 05:14:20;;;;;;;;;30.25;28.50;;;;;24.72;58.63;98875.50;5066465;28;8842;-78
2022/06/21 05:16:50;;;;;;;;;32.50;30.75;;;;;24.83;57.92;98880.09;5066283;28;8850;-79
2022/06/21 05:19:24;;;;;;;;;33.50;30.25;;;;;24.78;58.32;98880.41;5065657;28;8846;-81
2022/06/21 05:21:58;;;;;;;;;25.00;24.25;;;;;24.81;58.02;98888.22;5069000;28;8968;-81
2022/06/21 05:24:28;;;;;;;;;32.25;29.50;;;;;24.77;58.23;98892.06;5082799;28;8840;-83
2022/06/21 05:27:06;;;;;;;;;33.50;30.75;;;;;24.84;58.59;98892.47;5068768;28;8874;-80
2022/06/21 05:29:43;;;;;;;;;30.00;29.50;;;;;24.89;58.18;98888.50;5067324;28;8858;-78
2022/06/21 05:32:16;;;;;;;;;34.75;32.00;;;;;25.17;57.56;98891.91;5100783;27;9029;-80
2022/06/21 05:34:49;;;;;;;;;33.50;30.25;;;;;25.31;57.16;98887.41;5067417;28;8881;-79
2022/06/21 05:37:29;;;;;;;;;31.25;30.25;;;;;25.53;56.70;98890.25;5068953;28;8969;-80
2022/06/21 05:40:00;;;;;;;;;30.25;29.25;;;;;25.76;55.56;98887.72;5066475;28;8870;-78
2022/06/21 05:42:32;;;;;;;;;38.50;34.25;;;;;25.35;57.04;98894.25;5087272;28;8962;-80
2022/06/21 05:45:09;;;;;;;;;18.00;18.00;;;;;25.23;57.53;98898.66;5069731;28;8927;-79
2022/06/21 05:47:42;;;;;;;;;32.25;31.00;;;;;25.33;57.46;98897.03;5069380;28;8855;-76
2022/06/21 05:50:19;;;;;;;;;29.25;29.00;;;;;25.45;56.50;98889.97;5069073;28;8854;-76
2022/06/21 05:52:51;;;;;;;;;28.00;26.50;;;;;25.60;56.76;98907.53;5086566;28;8867;-75
2022/06/21 05:55:23;;;;;;;;;33.25;31.75;;;;;25.76;56.44;98907.25;5054848;28;8972;-75
2022/06/21 05:57:56;;;;;;;;;32.50;30.00;;;;;25.46;56.77;98915.69;5045681;28;8869;-75
2022/06/21 06:00:31;;;;;;;;;27.00;25.50;;;;;25.52;56.84;98909.91;4999887;28;8826;-78
2022/06/21 06:03:06;;;;;;;;;29.00;26.00;;;;;25.68;56.60;98910.47;5063615;28;8854;-78
2022/06/21 06:05:37;;;;;;;;;29.25;26.50;;;;;25.70;56.00;98920.22;5025117;28;8976;-78
2022/06/21 06:08:10;;;;;;;;;28.50;25.75;;;;;25.44;57.14;98925.63;4999482;28;8868;-78
2022/06/21 06:10:42;;;;;;;;;30.50;29.00;;;;;25.53;56.40;98929.44;5082833;28;8898;-78
2022/06/21 06:13:16;;;;;;;;;26.00;25.50;;;;;25.37;55.99;98935.91;5047407;28;8860;-78
2022/06/21 06:15:50;;;;;;;;;27.25;24.50;;;;;25.14;57.21;98942.84;5048782;28;8863;-78
2022/06/21 06:18:22;;;;;;;;;31.00;29.50;;;;;25.32;57.54;98948.72;5031570;28;8867;-75
2022/06/21 06:21:00;;;;;;;;;24.00;23.00;;;;;25.26;56.09;98941.16;5082366;28;9626;-78
2022/06/21 06:23:36;;;;;;;;;29.25;24.75;;;;;25.25;56.83;98937.59;5052847;28;8902;-69
2022/06/21 06:26:08;;;;;;;;;22.50;21.75;;;;;25.13;56.89;98949.13;5067506;28;8860;-73
2022/06/21 06:28:44;;;;;;;;;29.50;28.00;;;;;25.27;56.76;98949.06;5069801;28;8846;-76
2022/06/21 06:31:20;;;;;;;;;26.75;25.50;;;;;25.28;56.97;98953.41;5085640;28;8855;-72
2022/06/21 06:33:55;;;;;;;;;25.00;24.25;;;;;25.35;56.54;98958.31;5069527;28;8959;-74
2022/06/21 06:36:28;;;;;;;;;24.00;24.00;;;;;25.56;56.70;98958.59;5071332;28;8866;-76
2022/06/21 06:38:59;;;;;;;;;25.50;24.75;;;;;25.43;56.77;98966.63;5070490;28;8972;-75
2022/06/21 06:41:33;;;;;;;;;28.25;28.25;;;;;25.66;55.77;98967.66;5060334;28;8851;-77
2022/06/21 06:44:04;;;;;;;;;25.50;24.75;;;;;25.47;56.07;98978.81;5069204;28;8838;-75
2022/06/21 06:46:36;;;;;;;;;24.20;22.80;;;;;25.63;55.38;98966.06;5085893;28;9631;-76
2022/06/21 06:49:28;;;;;;;;;23.75;22.75;;;;;25.74;55.37;98959.94;5071140;28;8846;-73
2022/06/21 06:52:06;;;;;;;;;24.75;22.25;;;;;26.08;54.71;98960.16;5053437;28;8882;-74
2022/06/21 06:54:40;;;;;;;;;27.50;27.50;;;;;26.36;53.72;98956.28;5071434;28;8967;-75
2022/06/21 06:57:20;;;;;;;;;28.75;27.50;;;;;26.36;53.92;98966.13;5104456;28;8850;-75
2022/06/21 06:59:48;;;;;;;;;29.50;26.00;;;;;26.21;54.56;98960.09;5084001;28;9607;-73
2022/06/21 07:02:23;;;;;;;;;22.60;21.60;;;;;26.29;51.78;98973.75;5068883;28;8851;-73
2022/06/21 07:05:03;;;;;;;;;19.20;19.20;;;;;26.57;49.00;98972.50;5087641;28;8840;-73
2022/06/21 07:07:43;;;;;;;;;19.60;19.40;;;;;26.82;49.64;98966.19;5084069;28;8854;-74
2022/06/21 07:10:17;;;;;;;;;19.60;18.40;;;;;27.35;48.97;98959.44;5068997;28;8878;-73
2022/06/21 07:12:48;;;;;;;;;21.40;18.40;;;;;27.28;48.08;98968.91;5069315;28;8850;-74
2022/06/21 07:15:17;;;;;;;;;17.60;16.40;;;;;27.12;48.80;98972.78;5070648;28;8846;-76
2022/06/21 07:17:52;;;;;;;;;19.60;19.40;;;;;27.33;48.55;98967.59;5070878;28;8858;-75
2022/06/21 07:20:24;;;;;;;;;22.60;19.40;;;;;27.25;48.25;98977.19;5079589;28;9760;-79
2022/06/21 07:22:56;;;;;;;;;19.25;19.25;;;;;27.49;47.78;98980.63;5088146;28;8906;-78
2022/06/21 07:25:33;;;;;;;;;16.00;16.00;;;;;27.54;47.95;98978.44;5088447;28;8844;-78
2022/06/21 07:28:10;;;;;;;;;20.50;20.00;;;;;27.83;46.78;98969.00;5038222;28;8848;-79
2022/06/21 07:30:43;;;;;;;;;18.40;18.40;;;;;27.37;47.59;98981.59;5076340;28;8854;-78
2022/06/21 07:33:16;;;;;;;;;21.40;19.20;;;;;26.93;48.46;99001.94;5069148;28;9019;-74
2022/06/21 07:35:50;;;;;;;;;16.60;16.60;;;;;27.26;47.79;98986.94;5068820;28;8914;-77
2022/06/21 07:38:26;;;;;;;;;18.80;18.40;;;;;27.47;47.25;98989.75;5071199;28;8858;-76
2022/06/21 07:41:00;;;;;;;;;22.00;20.25;;;;;27.23;47.59;98988.00;5069773;28;9712;-76
2022/06/21 07:43:36;;;;;;;;;21.25;20.50;;;;;27.17;48.42;98983.16;5069207;28;8855;-76
2022/06/21 07:46:07;;;;;;;;;16.80;16.80;;;;;27.58;47.58;98995.09;5083539;28;8835;-74
2022/06/21 07:48:43;;;;;;;;;18.75;18.50;;;;;27.83;46.98;98996.66;5034983;28;8889;-76
2022/06/21 07:51:17;;;;;;;;;18.80;17.80;;;;;28.21;46.26;98990.03;5051592;28;8855;-75
2022/06/21 07:53:52;;;;;;;;;20.75;19.50;;;;;27.65;47.50;98998.16;5070036;28;8939;-77
2022/06/21 07:56:26;;;;;;;;;18.80;18.80;;;;;28.12;47.07;98985.41;5086421;28;8863;-76
2022/06/21 07:58:59;;;;;;;;;26.75;22.25;;;;;27.94;46.84;98988.63;5071121;28;8868;-77
2022/06/21 08:07:15;;;;;;;;;21.00;19.00;;;;;28.57;46.10;98986.13;5071888;28;8862;-76
2022/06/21 08:09:50;;;;;;;;;20.50;20.00;;;;;28.34;46.14;98998.75;5070521;28;8889;-78
2022/06/21 08:12:20;;;;;;;;;22.50;20.75;;;;;28.03;46.65;98996.91;5070097;28;8826;-79
2022/06/21 08:14:49;;;;;;;;;19.75;18.75;;;;;27.50;47.93;98990.34;5079012;28;8852;-77
2022/06/21 08:17:29;;;;;;;;;21.25;20.25;;;;;27.56;47.32;99002.41;5081386;28;8882;-80
2022/06/21 08:20:04;;;;;;;;;21.00;20.00;;;;;27.43;48.15;99015.94;5090122;28;8848;-79
2022/06/21 08:22:38;;;;;;;;;22.50;21.50;;;;;27.73;47.78;99001.94;5080309;28;8951;-72
2022/06/21 08:25:19;;;;;;;;;19.75;18.50;;;;;27.92;47.17;99009.34;5069526;28;8842;-74
2022/06/21 08:27:53;;;;;;;;;19.25;17.25;;;;;28.08;47.09;99008.09;5050249;28;8862;-69
2022/06/21 08:30:27;;;;;;;;;18.00;18.00;;;;;28.50;46.34;99005.53;5069452;28;8915;-70
2022/06/21 08:33:04;;;;;;;;;19.25;19.25;;;;;27.83;47.96;99009.19;5069777;28;8901;-69
2022/06/21 08:35:36;;;;;;;;;17.20;17.20;;;;;27.75;47.90;99008.00;5069624;28;8964;-68
2022/06/21 08:38:09;;;;;;;;;20.25;20.00;;;;;27.63;48.65;99006.28;5069317;28;8854;-76
2022/06/21 08:44:32;;;;;;;;;21.80;18.60;;;;;27.13;49.58;99016.47;5031010;28;8900;-78
2022/06/21 08:47:31;;;;;;;;;18.40;17.00;;;;;27.26;48.38;99011.03;5029481;28;8866;-81
2022/06/21 08:50:52;;;;;;;;;22.60;22.00;;;;;27.61;48.33;99016.28;5013726;28;8964;-77
2022/06/21 08:53:46;;;;;;;;;20.00;19.00;;;;;27.48;48.91;99011.03;5029923;28;8877;-79
2022/06/21 08:56:19;;;;;;;;;17.60;16.60;;;;;27.91;47.83;99010.31;5029550;28;8853;-75
2022/06/21 08:59:01;;;;;;;;;18.75;18.50;;;;;28.26;46.72;99020.00;5026876;28;8864;-76
2022/06/21 09:01:39;;;;;;;;;18.80;18.00;;;;;27.91;46.49;99018.34;5027279;28;8978;-79
2022/06/21 09:04:25;;;;;;;;;17.50;17.25;;;;;27.38;47.72;99012.75;4977448;28;9066;-77
2022/06/21 09:07:35;;;;;;;;;19.40;16.40;;;;;27.87;47.16;99002.63;5023914;28;9643;-76
2022/06/21 09:10:22;;;;;;;;;21.75;21.25;;;;;28.07;45.87;99003.72;4967462;28;8890;-75
2022/06/21 09:13:07;;;;;;;;;20.60;19.60;;;;;27.88;45.52;98999.81;4938742;28;8888;-77
2022/06/21 09:15:48;;;;;;;;;19.50;17.50;;;;;28.12;45.29;98998.81;4954237;28;8898;-76
2022/06/21 09:18:31;;;;;;;;;21.75;21.00;;;;;27.79;45.25;99001.41;4981447;28;9488;-77
2022/06/21 09:21:06;;;;;;;;;19.60;19.20;;;;;27.97;45.09;98991.06;4985881;28;8824;-78
2022/06/21 09:23:59;;;;;;;;;19.40;19.00;;;;;28.46;44.50;98987.97;5018125;28;9675;-76
2022/06/21 09:26:45;;;;;;;;;20.80;18.40;;;;;28.57;44.17;98990.66;4935664;28;9054;-74
2022/06/21 09:29:25;;;;;;;;;17.60;17.60;;;;;28.52;42.82;99001.75;4945625;28;8925;-75
2022/06/21 09:32:08;;;;;;;;;18.80;17.80;;;;;28.43;43.21;98993.59;4920523;28;8853;-76
2022/06/21 09:34:51;;;;;;;;;16.00;15.80;;;;;28.38;43.51;98985.94;4933350;29;8863;-76
2022/06/21 09:37:31;;;;;;;;;19.00;19.00;;;;;28.25;44.12;98991.47;4913188;29;8979;-77
2022/06/21 09:40:07;;;;;;;;;16.40;16.40;;;;;28.49;42.54;98995.78;4928321;29;8908;-75
2022/06/21 09:43:05;;;;;;;;;18.20;16.60;;;;;28.53;42.57;98990.06;4928440;29;8879;-76
2022/06/21 09:45:42;;;;;;;;;18.25;18.00;;;;;28.86;41.84;98996.22;4926454;28;8992;-76
2022/06/21 09:48:18;;;;;;;;;15.50;15.00;;;;;29.00;41.18;98989.69;4981652;28;8940;-75
2022/06/21 09:50:59;;;;;;;;;16.80;16.20;;;;;28.86;41.47;98990.00;4986387;28;8890;-76
2022/06/21 09:53:43;;;;;;;;;16.40;15.80;;;;;29.24;41.81;98993.94;4989220;28;9055;-77
2022/06/21 09:56:22;;;;;;;;;17.00;16.80;;;;;29.05;42.00;98997.31;4988642;28;8862;-77
2022/06/21 09:59:00;;;;;;;;;15.60;15.00;;;;;29.18;41.43;98995.31;5004847;28;8858;-77
2022/06/21 10:01:39;;;;;;;;;16.00;16.00;;;;;29.24;41.74;98988.56;4993588;28;8891;-76
2022/06/21 10:04:24;;;;;;;;;10.00;10.00;;;;;29.68;40.91;98987.34;5040500;28;8862;-77
2022/06/21 10:07:06;;;;;;;;;17.80;16.80;;;;;29.89;39.54;98989.13;5070202;28;8844;-75
2022/06/21 10:09:51;;;;;;;;;13.20;13.20;;;;;30.25;38.77;98989.47;5087986;28;8975;-78
2022/06/21 10:12:30;;;;;;;;;14.40;14.40;;;;;30.13;38.38;98980.66;5046407;28;8948;-78
2022/06/21 10:15:35;;;;;;;;;16.40;15.80;;;;;30.35;37.74;98984.13;5013287;28;9666;-78
2022/06/21 10:18:36;;;;;;;;;14.20;14.20;;;;;30.69;37.77;98985.38;5045405;28;8897;-77
2022/06/21 10:21:26;;;;;;;;;14.80;14.80;;;;;30.80;37.71;98984.38;5007805;28;8859;-78
2022/06/21 10:24:19;;;;;;;;;15.60;15.20;;;;;30.66;37.78;98979.41;5025733;28;8990;-76
2022/06/21 10:27:21;;;;;;;;;16.40;16.40;;;;;30.20;39.20;98983.66;5007849;28;8852;-78
2022/06/21 10:30:16;;;;;;;;;19.75;19.25;;;;;30.36;39.20;98985.81;4946429;28;8849;-76
2022/06/21 10:33:18;;;;;;;;;16.75;15.25;;;;;29.87;40.14;98986.56;4946655;29;8849;-77
2022/06/21 10:36:02;;;;;;;;;17.25;16.25;;;;;30.38;39.65;98983.81;4946898;29;8869;-75
2022/06/21 10:38:55;;;;;;;;;17.80;15.80;;;;;30.85;39.32;98981.25;4947136;29;8866;-76
2022/06/21 10:42:46;;;;;;;;;18.00;18.00;;;;;31.05;38.99;98974.84;4947039;28;8883;-77
2022/06/21 10:44:47;;;;;;;;;16.50;16.50;;;;;31.40;38.14;98977.84;4999274;28;8875;-77
2022/06/21 10:47:28;;;;;;;;;19.00;18.25;;;;;30.98;38.21;98983.66;5002093;28;8866;-77
2022/06/21 10:50:15;;;;;;;;;4.25;4.25;;;;;30.95;38.55;98982.13;5004775;28;9022;-76
2022/06/21 10:53:29;;;;;;;;;18.00;17.20;;;;;31.19;37.86;98970.00;5029557;28;8878;-77
2022/06/21 10:59:02;;;;;;;;;17.75;17.00;;;;;31.19;37.59;98984.34;5011305;28;8880;-75
2022/06/21 11:01:40;;;;;;;;;18.50;18.50;;;;;31.46;37.86;98980.84;5017408;28;8945;-75
2022/06/21 11:04:42;;;;;;;;;18.25;18.25;;;;;31.31;37.29;98993.06;5004762;28;8977;-76
2022/06/21 11:07:19;;;;;;;;;16.00;16.00;;;;;31.31;37.52;98986.84;4996830;28;8889;-79
2022/06/21 11:09:54;;;;;;;;;17.80;16.20;;;;;31.63;36.56;98981.91;5006413;28;8873;-76
2022/06/21 11:15:30;;;;;;;;;14.25;13.25;;;;;32.21;35.55;98983.44;5011923;28;8856;-76
2022/06/21 11:18:11;;;;;;;;;18.00;17.00;;;;;32.16;35.49;98991.13;5011152;28;8875;-75
2022/06/21 11:20:52;;;;;;;;;16.00;14.25;;;;;32.64;35.41;98976.41;5027742;28;8836;-74
2022/06/21 11:23:34;;;;;;;;;15.75;15.25;;;;;33.09;34.55;98981.81;5028070;28;8880;-74
2022/06/21 11:26:13;;;;;;;;;18.50;15.75;;;;;33.41;33.62;98982.00;5008394;28;8979;-76
2022/06/21 11:29:15;;;;;;;;;17.00;17.00;;;;;32.98;33.73;98981.03;4985281;28;8852;-74
2022/06/21 11:31:52;;;;;;;;;17.25;15.25;;;;;33.33;32.54;98983.84;5027678;28;8875;-75
2022/06/21 11:34:34;;;;;;;;;17.00;16.00;;;;;32.37;34.35;98973.78;4975891;28;8894;-75
2022/06/21 11:37:13;;;;;;;;;15.00;12.50;;;;;32.88;33.85;98966.81;5010222;28;8967;-75
2022/06/21 11:39:50;;;;;;;;;15.25;15.25;;;;;32.94;32.28;98981.53;5019743;28;8887;-74
2022/06/21 11:42:24;;;;;;;;;18.00;17.25;;;;;32.89;33.52;98970.34;5022296;28;8962;-76
2022/06/21 11:45:20;;;;;;;;;15.50;14.25;;;;;33.45;32.83;98970.88;5072181;28;8885;-75
2022/06/21 11:48:08;;;;;;;;;14.75;14.75;;;;;33.93;31.79;98964.84;5091735;27;8924;-75
2022/06/21 11:50:44;;;;;;;;;16.75;16.50;;;;;33.48;31.97;98973.25;5078165;28;8878;-75
2022/06/21 11:53:43;;;;;;;;;17.75;16.00;;;;;33.08;32.94;98963.88;5070863;28;8881;-74
2022/06/21 11:56:21;;;;;;;;;16.50;16.50;;;;;33.22;33.01;98966.03;5046869;28;8890;-74
2022/06/21 11:58:58;;;;;;;;;19.00;18.25;;;;;33.51;32.53;98959.41;4998710;28;9768;-75
2022/06/21 12:01:33;;;;;;;;;16.25;15.50;;;;;33.69;32.12;98960.19;5030550;28;8889;-75
2022/06/21 12:04:18;;;;;;;;;16.75;16.75;;;;;34.40;31.40;98962.56;5047328;28;9111;-76
2022/06/21 12:06:58;;;;;;;;;15.25;15.25;;;;;34.59;30.78;98947.84;5046502;28;8963;-74
2022/06/21 12:09:35;;;;;;;;;14.25;12.25;;;;;35.05;29.67;98954.44;4997073;28;8877;-75
2022/06/21 12:12:21;;;;;;;;;16.00;15.50;;;;;35.50;29.03;98943.94;5039537;28;8865;-75
2022/06/21 12:15:03;;;;;;;;;15.75;14.75;;;;;35.81;28.98;98946.72;5047947;28;8846;-77
2022/06/21 12:17:45;;;;;;;;;15.50;15.50;;;;;33.81;31.50;98957.19;5030105;28;8939;-75
2022/06/21 12:20:20;;;;;;;;;16.00;15.25;;;;;32.94;33.03;98951.81;5047222;28;8889;-74
2022/06/21 12:22:56;;;;;;;;;14.25;14.25;;;;;32.53;33.42;98941.53;5047419;28;8839;-75
2022/06/21 12:25:25;;;;;;;;;13.50;13.00;;;;;33.03;32.96;98943.59;5047152;28;8836;-73
2022/06/21 12:28:00;;;;;;;;;18.00;15.75;;;;;32.72;33.45;98934.28;5047205;28;8832;-74